createdAt,value
2018-06-02T00:00:36.595Z,37.83
2018-06-02T00:04:39.246Z,36.63
2018-06-02T00:08:41.948Z,31.90
2018-06-02T00:12:44.603Z,39.13
2018-06-02T00:16:47.261Z,33.93
2018-06-02T00:20:50.641Z,34.07
2018-06-02T00:24:53.298Z,35.23
2018-06-02T00:28:56.728Z,34.37
2018-06-02T00:32:59.432Z,37.43
2018-06-02T00:37:02.115Z,34.30
2018-06-02T00:41:04.729Z,33.93
2018-06-02T00:45:07.381Z,31.93
2018-06-02T00:49:10.038Z,36.50
2018-06-02T00:53:12.696Z,34.67
2018-06-02T00:57:15.341Z,34.17
2018-06-02T01:01:18.010Z,34.43
2018-06-02T01:05:20.653Z,37.47
2018-06-02T01:09:23.311Z,35.77
2018-06-02T01:13:25.957Z,36.13
2018-06-02T01:17:28.943Z,35.73
2018-06-02T01:21:31.572Z,37.77
2018-06-02T01:25:35.052Z,39.57
2018-06-02T01:29:37.718Z,40.30
2018-06-02T01:33:40.369Z,43.13
2018-06-02T01:37:43.024Z,40.03
2018-06-02T01:41:45.643Z,43.23
2018-06-02T01:45:48.304Z,44.53
2018-06-02T01:49:50.958Z,45.50
2018-06-02T01:53:53.657Z,45.30
2018-06-02T01:57:56.314Z,41.60
2018-06-02T02:01:58.928Z,46.13
2018-06-02T02:06:01.582Z,44.93
2018-06-02T02:10:04.266Z,44.90
2018-06-02T02:14:06.966Z,47.27
2018-06-02T02:18:09.631Z,53.40
2018-06-02T02:22:13.015Z,50.53
2018-06-02T02:26:15.724Z,59.73
2018-06-02T02:30:19.193Z,53.47
2018-06-02T02:34:21.861Z,55.33
2018-06-02T02:38:25.295Z,54.60
2018-06-02T02:42:27.965Z,58.67
2018-06-02T02:46:30.624Z,57.63
2018-06-02T02:50:33.276Z,58.93
2018-06-02T02:54:35.936Z,54.77
2018-06-02T02:58:38.591Z,53.40
2018-06-02T03:02:41.263Z,57.87
2018-06-02T03:06:43.968Z,62.53
2018-06-02T03:10:46.641Z,59.20
2018-06-02T03:14:49.312Z,60.40
2018-06-02T03:18:51.968Z,67.67
2018-06-02T03:22:54.616Z,66.67
2018-06-02T03:26:57.278Z,72.50
2018-06-02T03:30:59.937Z,72.17
2018-06-02T03:35:02.589Z,71.27
2018-06-02T03:39:05.259Z,77.23
2018-06-02T03:43:08.647Z,70.00
2018-06-02T03:47:11.313Z,68.00
2018-06-02T03:51:13.986Z,81.00
2018-06-02T03:55:16.654Z,73.23
2018-06-02T03:59:19.324Z,75.73
2018-06-02T04:03:22.707Z,80.73
2018-06-02T04:07:25.361Z,85.43
2018-06-02T04:11:28.020Z,76.00
2018-06-02T04:15:30.672Z,76.93
2018-06-02T04:19:33.354Z,68.20
2018-06-02T04:23:35.979Z,76.87
2018-06-02T04:27:38.628Z,77.53
2018-06-02T04:31:41.334Z,81.33
2018-06-02T04:35:43.992Z,81.10
2018-06-02T04:39:46.653Z,78.63
2018-06-02T04:43:49.273Z,78.13
2018-06-02T04:47:52.737Z,71.23
2018-06-02T04:51:55.409Z,69.77
2018-06-02T04:55:58.838Z,73.33
2018-06-02T05:00:01.501Z,74.83
2018-06-02T05:04:04.902Z,69.57
2018-06-02T05:08:08.333Z,65.73
2018-06-02T05:12:11.024Z,67.67
2018-06-02T05:16:13.714Z,71.03
2018-06-02T05:20:16.377Z,73.63
2018-06-02T05:24:19.760Z,68.67
2018-06-02T05:28:22.423Z,69.83
2018-06-02T05:32:25.085Z,63.97
2018-06-02T05:36:27.745Z,59.07
2018-06-02T05:40:31.190Z,62.07
2018-06-02T05:44:34.594Z,62.30
2018-06-02T05:48:37.254Z,61.50
2018-06-02T05:52:40.672Z,56.37
2018-06-02T05:56:44.095Z,58.37
2018-06-02T06:00:46.749Z,50.77
2018-06-02T06:04:50.143Z,52.00
2018-06-02T06:08:52.798Z,43.80
2018-06-02T06:12:55.460Z,47.60
2018-06-02T06:16:58.111Z,41.77
2018-06-02T06:21:00.773Z,42.73
2018-06-02T06:25:03.396Z,47.07
2018-06-02T06:29:06.048Z,46.50
2018-06-02T06:33:08.723Z,45.73
2018-06-02T06:37:11.447Z,43.63
2018-06-02T06:41:14.099Z,43.60
2018-06-02T06:45:16.719Z,42.17
2018-06-02T06:49:19.373Z,35.13
2018-06-02T06:53:22.025Z,37.73
2018-06-02T06:57:25.448Z,38.47
2018-06-02T07:01:28.101Z,40.47
2018-06-02T07:05:30.716Z,42.57
2018-06-02T07:09:34.134Z,49.97
2018-06-02T07:13:36.788Z,47.73
2018-06-02T07:17:39.504Z,48.63
2018-06-02T07:21:42.969Z,45.70
2018-06-02T07:25:45.568Z,46.00
2018-06-02T07:29:48.235Z,45.80
2018-06-02T07:33:50.905Z,47.13
2018-06-02T07:37:53.575Z,40.37
2018-06-02T07:41:56.236Z,47.67
2018-06-02T07:45:58.903Z,50.97
2018-06-02T07:50:01.681Z,41.03
2018-06-02T07:54:04.283Z,37.70
2018-06-02T07:58:07.063Z,34.23
2018-06-02T08:02:10.496Z,36.77
2018-06-02T08:06:13.106Z,36.90
2018-06-02T08:14:21.619Z,44.50
2018-06-02T08:18:24.289Z,45.20
2018-06-02T08:22:27.721Z,45.60
2018-06-02T08:26:30.338Z,42.73
2018-06-02T08:30:33.018Z,39.07
2018-06-02T08:34:35.692Z,44.67
2018-06-02T08:38:38.373Z,46.07
2018-06-02T08:42:41.036Z,41.07
2018-06-02T08:46:44.417Z,46.60
2018-06-02T08:50:47.090Z,41.50
2018-06-02T08:54:49.765Z,46.63
2018-06-02T08:58:52.421Z,43.07
2018-06-02T09:02:55.846Z,37.10
2018-06-02T09:06:58.470Z,39.00
2018-06-02T09:11:01.142Z,32.67
2018-06-02T09:15:03.803Z,33.60
2018-06-02T09:19:06.468Z,36.57
2018-06-02T09:23:09.133Z,35.47
2018-06-02T09:27:11.759Z,36.03
2018-06-02T09:31:14.456Z,39.97
2018-06-02T09:35:17.131Z,36.30
2018-06-02T09:39:20.573Z,35.63
2018-06-02T09:43:23.220Z,37.47
2018-06-02T09:47:26.601Z,36.90
2018-06-02T09:51:29.256Z,37.80
2018-06-02T09:55:31.901Z,31.63
2018-06-02T09:59:35.312Z,29.37
2018-06-02T10:03:38.744Z,30.33
2018-06-02T10:07:41.356Z,37.97
2018-06-02T10:11:44.051Z,28.23
2018-06-02T10:15:46.707Z,30.73
2018-06-02T10:19:49.370Z,38.07
2018-06-02T10:23:52.840Z,36.40
2018-06-02T10:27:56.256Z,35.97
2018-06-02T10:31:58.925Z,36.60
2018-06-02T10:36:01.589Z,29.80
2018-06-02T10:40:04.271Z,31.97
2018-06-02T10:44:06.916Z,35.77
2018-06-02T10:48:09.529Z,30.57
2018-06-02T10:52:12.976Z,33.63
2018-06-02T10:56:15.680Z,27.90
2018-06-02T11:00:18.340Z,27.67
2018-06-02T11:04:20.993Z,27.10
2018-06-02T11:08:23.600Z,30.97
2018-06-02T11:12:27.022Z,23.53
2018-06-02T11:16:29.681Z,28.17
2018-06-02T11:20:32.333Z,20.27
2018-06-02T11:24:34.989Z,21.73
2018-06-02T11:28:37.606Z,16.57
2018-06-02T11:32:40.266Z,12.10
2018-06-02T11:36:42.929Z,12.37
2018-06-02T11:40:46.348Z,12.87
2018-06-02T11:44:49.777Z,10.73
2018-06-02T11:48:52.394Z,11.23
2018-06-02T11:52:55.057Z,12.13
2018-06-02T11:56:57.716Z,12.77
2018-06-02T12:01:01.189Z,11.63
2018-06-02T12:05:03.814Z,13.17
2018-06-02T12:09:07.190Z,11.83
2018-06-02T12:13:09.838Z,11.50
2018-06-02T12:17:12.489Z,11.53
2018-06-02T12:21:15.906Z,11.50
2018-06-02T12:25:18.559Z,8.73
2018-06-02T12:29:21.171Z,8.00
2018-06-02T12:33:23.857Z,10.83
2018-06-02T12:37:27.275Z,13.17
2018-06-02T12:41:30.694Z,8.90
2018-06-02T12:45:33.345Z,8.23
2018-06-02T12:49:35.972Z,6.13
2018-06-02T12:53:38.612Z,6.87
2018-06-02T12:57:41.321Z,7.07
2018-06-02T13:01:44.730Z,8.63
2018-06-02T13:05:48.140Z,7.83
2018-06-02T13:09:51.527Z,7.60
2018-06-02T13:13:54.185Z,6.47
2018-06-02T13:17:56.847Z,8.40
2018-06-02T13:21:59.501Z,7.43
2018-06-02T13:26:02.152Z,8.67
2018-06-02T13:30:04.758Z,6.93
2018-06-02T13:34:07.407Z,9.80
2018-06-02T13:38:10.070Z,7.90
2018-06-02T13:42:13.524Z,9.63
2018-06-02T13:46:16.169Z,8.50
2018-06-02T13:50:19.548Z,9.73
2018-06-02T13:54:22.196Z,11.93
2018-06-02T13:58:24.868Z,10.90
2018-06-02T14:02:27.522Z,11.73
2018-06-02T14:06:30.948Z,14.73
2018-06-02T14:10:34.318Z,14.43
2018-06-02T14:14:36.977Z,14.97
2018-06-02T14:18:39.695Z,13.73
2018-06-02T14:22:42.334Z,20.90
2018-06-02T14:26:44.984Z,16.43
2018-06-02T14:30:47.630Z,18.83
2018-06-02T14:34:50.287Z,18.80
2018-06-02T14:38:52.948Z,20.77
2018-06-02T14:42:55.609Z,17.37
2018-06-02T14:46:59.075Z,16.40
2018-06-02T14:51:01.689Z,15.73
2018-06-02T14:55:04.364Z,16.97
2018-06-02T14:59:07.033Z,15.43
2018-06-02T15:03:10.457Z,18.83
2018-06-02T15:07:13.108Z,19.33
2018-06-02T15:11:15.918Z,20.03
2018-06-02T15:15:19.339Z,16.50
2018-06-02T15:19:22.013Z,20.17
2018-06-02T15:23:25.431Z,19.40
2018-06-02T15:27:28.088Z,21.20
2018-06-02T15:31:30.713Z,17.27
2018-06-02T15:35:33.365Z,19.50
2018-06-02T15:39:36.020Z,19.33
2018-06-02T15:43:38.677Z,18.20
2018-06-02T15:47:41.336Z,18.97
2018-06-02T15:51:43.956Z,21.70
2018-06-02T15:55:46.616Z,22.10
2018-06-02T15:59:50.044Z,22.03
2018-06-02T16:03:52.703Z,20.17
2018-06-02T16:07:55.368Z,22.33
2018-06-02T16:11:57.987Z,24.87
2018-06-02T16:16:00.693Z,22.50
2018-06-02T16:20:04.110Z,24.63
2018-06-02T16:24:06.762Z,20.13
2018-06-02T16:28:09.424Z,24.77
2018-06-02T16:32:12.051Z,20.80
2018-06-02T16:36:15.463Z,22.33
2018-06-02T16:40:18.888Z,23.50
2018-06-02T16:44:21.552Z,95.27
2018-06-02T16:48:24.972Z,30.50
2018-06-02T16:52:28.363Z,22.67
2018-06-02T16:56:31.902Z,22.73
2018-06-02T17:00:34.570Z,24.23
2018-06-02T17:04:37.987Z,23.77
2018-06-02T17:08:40.713Z,22.50
2018-06-02T17:12:43.330Z,25.17
2018-06-02T17:16:45.991Z,23.33
2018-06-02T17:20:48.655Z,24.77
2018-06-02T17:24:51.357Z,26.67
2018-06-02T17:28:54.020Z,27.50
2018-06-02T17:32:56.643Z,26.57
2018-06-02T17:36:59.294Z,23.90
2018-06-02T17:41:02.712Z,25.10
2018-06-02T17:45:05.388Z,25.97
2018-06-02T17:49:08.069Z,30.43
2018-06-02T17:53:11.469Z,22.73
2018-06-02T17:57:14.889Z,25.30
2018-06-02T18:01:18.310Z,28.00
2018-06-02T18:05:20.975Z,28.43
2018-06-02T18:09:24.401Z,26.73
2018-06-02T18:13:27.023Z,22.90
2018-06-02T18:17:29.685Z,29.70
2018-06-02T18:21:32.339Z,27.93
2018-06-02T18:25:34.994Z,32.13
2018-06-02T18:29:37.648Z,30.73
2018-06-02T18:33:40.281Z,35.73
2018-06-02T18:37:42.937Z,33.10
2018-06-02T18:41:45.674Z,34.80
2018-06-02T18:45:48.341Z,32.63
2018-06-02T18:49:50.990Z,31.87
2018-06-02T18:53:53.597Z,34.27
2018-06-02T18:57:56.276Z,32.03
2018-06-02T19:01:58.924Z,34.00
2018-06-02T19:06:01.580Z,32.57
2018-06-02T19:10:04.231Z,38.93
2018-06-02T19:14:06.845Z,36.23
2018-06-02T19:18:09.505Z,33.80
2018-06-02T19:22:12.184Z,31.73
2018-06-02T19:26:15.604Z,38.20
2018-06-02T19:30:18.264Z,34.57
2018-06-02T19:34:20.890Z,34.43
2018-06-02T19:38:23.543Z,43.73
2018-06-02T19:42:26.962Z,37.93
2018-06-02T19:46:30.388Z,34.87
2018-06-02T19:50:33.061Z,37.27
2018-06-02T19:54:36.440Z,39.67
2018-06-02T19:58:39.093Z,35.90
2018-06-02T20:02:41.740Z,36.93
2018-06-02T20:06:45.173Z,36.77
2018-06-02T20:10:47.829Z,32.63
2018-06-02T20:14:51.215Z,35.13
2018-06-02T20:18:54.672Z,37.67
2018-06-02T20:22:57.329Z,39.23
2018-06-02T20:27:00.753Z,38.87
2018-06-02T20:31:03.462Z,35.47
2018-06-02T20:35:06.075Z,39.67
2018-06-02T20:39:08.750Z,38.07
2018-06-02T20:43:11.419Z,38.13
2018-06-02T20:47:14.080Z,36.10
2018-06-02T20:51:17.505Z,41.47
2018-06-02T20:55:20.117Z,37.63
2018-06-02T20:59:22.773Z,38.63
2018-06-02T21:03:25.448Z,33.13
2018-06-02T21:07:28.880Z,38.13
2018-06-02T21:11:31.537Z,35.37
2018-06-02T21:15:34.161Z,32.97
2018-06-02T21:19:36.822Z,37.97
2018-06-02T21:23:40.246Z,35.43
2018-06-02T21:27:42.915Z,30.37
2018-06-02T21:31:46.342Z,28.07
2018-06-02T21:35:49.039Z,36.77
2018-06-02T21:39:51.694Z,34.97
2018-06-02T21:43:54.360Z,29.57
2018-06-02T21:47:57.013Z,30.50
2018-06-02T21:51:59.677Z,32.17
2018-06-02T21:56:03.067Z,31.37
2018-06-02T22:00:05.728Z,31.73
2018-06-02T22:04:08.376Z,31.63
2018-06-02T22:08:11.041Z,32.00
2018-06-02T22:12:14.467Z,36.43
2018-06-02T22:16:17.101Z,31.47
2018-06-02T22:20:19.761Z,31.83
2018-06-02T22:24:22.420Z,31.23
2018-06-02T22:28:25.850Z,34.30
2018-06-02T22:32:28.519Z,40.20
2018-06-02T22:36:31.894Z,40.43
2018-06-02T22:40:34.554Z,40.07
2018-06-02T22:44:37.214Z,43.00
2018-06-02T22:48:39.874Z,38.87
2018-06-02T22:52:42.536Z,40.10
2018-06-02T22:56:45.153Z,35.03
2018-06-02T23:00:48.580Z,34.40
2018-06-02T23:04:51.271Z,43.93
2018-06-02T23:08:53.924Z,38.57
2018-06-02T23:12:56.584Z,41.97
2018-06-02T23:16:59.201Z,41.80
2018-06-02T23:21:01.873Z,38.00
2018-06-02T23:25:04.622Z,40.37
2018-06-02T23:29:07.327Z,36.13
2018-06-02T23:33:09.981Z,42.97
2018-06-02T23:37:13.402Z,44.90
2018-06-02T23:41:16.063Z,50.23
2018-06-02T23:45:19.495Z,46.87
2018-06-02T23:49:22.143Z,48.00
2018-06-02T23:53:24.865Z,46.57
2018-06-02T23:57:28.251Z,49.80
